createdAt,value
2024-02-08T00:01:26.967Z,1.10
2024-02-08T00:03:54.188Z,0.80
2024-02-08T00:06:21.570Z,1.08
2024-02-08T00:08:50.931Z,1.10
2024-02-08T00:11:18.191Z,1.05
2024-02-08T00:13:45.536Z,0.90
2024-02-08T00:16:13.537Z,0.80
2024-02-08T00:18:41.004Z,0.90
2024-02-08T00:21:10.423Z,0.70
2024-02-08T00:23:40.234Z,0.77
2024-02-08T00:26:07.512Z,0.90
2024-02-08T00:28:34.842Z,0.80
2024-02-08T00:31:04.753Z,0.90
2024-02-08T00:33:34.966Z,0.70
2024-02-08T00:36:02.270Z,0.73
2024-02-08T00:38:30.733Z,0.70
2024-02-08T00:40:58.232Z,0.70
2024-02-08T00:43:25.873Z,0.60
2024-02-08T00:45:55.590Z,0.70
2024-02-08T00:48:23.501Z,0.57
2024-02-08T00:50:50.845Z,0.80
2024-02-08T00:53:18.079Z,0.70
2024-02-08T00:55:47.671Z,0.60
2024-02-08T00:58:17.064Z,0.68
2024-02-08T01:00:44.449Z,0.70
2024-02-08T01:03:12.003Z,0.57
2024-02-08T01:05:39.173Z,0.60
2024-02-08T01:08:07.359Z,0.70
2024-02-08T01:10:34.597Z,0.40
2024-02-08T01:13:01.864Z,0.70
2024-02-08T01:15:29.939Z,0.52
2024-02-08T01:17:57.165Z,0.70
2024-02-08T01:20:29.353Z,0.50
2024-02-08T01:22:59.052Z,0.50
2024-02-08T01:25:26.599Z,0.57
2024-02-08T01:27:53.753Z,0.47
2024-02-08T01:30:25.773Z,0.50
2024-02-08T01:32:54.610Z,0.40
2024-02-08T01:35:25.852Z,0.60
2024-02-08T01:37:54.611Z,0.40
2024-02-08T01:40:23.075Z,0.70
2024-02-08T01:42:59.062Z,0.55
2024-02-08T01:45:38.972Z,0.68
2024-02-08T01:48:12.307Z,0.60
2024-02-08T01:50:49.757Z,0.90
2024-02-08T01:53:28.685Z,0.50
2024-02-08T01:56:01.084Z,0.65
2024-02-08T01:58:32.380Z,0.50
2024-02-08T02:01:11.518Z,0.40
2024-02-08T02:03:39.714Z,0.40
2024-02-08T02:06:09.661Z,0.50
2024-02-08T02:08:37.316Z,0.50
2024-02-08T02:11:46.418Z,0.60
2024-02-08T02:14:17.184Z,0.40
2024-02-08T02:16:44.936Z,0.60
2024-02-08T02:19:12.200Z,0.60
2024-02-08T02:21:40.869Z,0.40
2024-02-08T02:24:09.138Z,0.40
2024-02-08T02:26:36.655Z,0.40
2024-02-08T02:29:05.524Z,0.65
2024-02-08T02:31:33.785Z,0.40
2024-02-08T02:34:01.624Z,0.60
2024-02-08T02:36:29.007Z,0.50
2024-02-08T02:38:56.681Z,0.40
2024-02-08T02:41:28.952Z,0.50
2024-02-08T02:43:56.249Z,0.57
2024-02-08T02:46:23.855Z,0.40
2024-02-08T02:48:51.732Z,0.40
2024-02-08T02:51:19.004Z,0.47
2024-02-08T02:53:46.529Z,0.40
2024-02-08T02:56:14.033Z,0.50
2024-02-08T02:58:41.355Z,1.73
2024-02-08T03:01:08.764Z,0.47
2024-02-08T03:03:38.819Z,0.70
2024-02-08T03:06:17.282Z,0.40
2024-02-08T03:08:46.594Z,0.43
2024-02-08T03:11:15.021Z,0.50
2024-02-08T03:13:45.079Z,0.50
2024-02-08T03:16:15.973Z,0.50
2024-02-08T03:18:45.112Z,0.30
2024-02-08T03:21:19.413Z,0.40
2024-02-08T03:23:48.700Z,0.60
2024-02-08T03:26:19.075Z,0.40
2024-02-08T03:28:47.768Z,0.50
2024-02-08T03:31:15.553Z,0.40
2024-02-08T03:33:44.792Z,0.35
2024-02-08T03:36:13.215Z,0.30
2024-02-08T03:38:41.111Z,0.40
2024-02-08T03:41:09.406Z,0.47
2024-02-08T03:43:36.883Z,0.30
2024-02-08T03:46:06.219Z,0.40
2024-02-08T03:48:33.848Z,0.50
2024-02-08T03:51:02.091Z,0.40
2024-02-08T03:53:30.718Z,0.52
2024-02-08T03:55:58.086Z,0.40
2024-02-08T03:58:25.826Z,0.40
2024-02-08T04:00:55.097Z,0.68
2024-02-08T04:03:45.450Z,0.30
2024-02-08T04:06:42.230Z,0.30
2024-02-08T04:09:18.250Z,0.40
2024-02-08T04:12:04.498Z,0.32
2024-02-08T04:14:50.086Z,0.30
2024-02-08T04:17:35.776Z,0.40
2024-02-08T04:20:21.875Z,0.30
2024-02-08T04:23:08.151Z,0.30
2024-02-08T04:25:53.874Z,0.40
2024-02-08T04:28:39.595Z,0.40
2024-02-08T04:31:29.225Z,0.30
2024-02-08T04:34:15.352Z,0.30
2024-02-08T04:37:01.459Z,0.35
2024-02-08T04:39:46.987Z,0.40
2024-02-08T04:42:32.785Z,0.35
2024-02-08T04:45:32.276Z,0.38
2024-02-08T04:48:18.039Z,0.38
2024-02-08T04:51:03.826Z,0.30
2024-02-08T04:53:40.042Z,0.65
2024-02-08T04:56:11.628Z,0.30
2024-02-08T04:59:06.991Z,0.30
2024-02-08T05:01:39.494Z,0.40
2024-02-08T05:04:06.964Z,0.40
2024-02-08T05:06:36.620Z,0.30
2024-02-08T05:09:04.311Z,0.40
2024-02-08T05:11:31.721Z,0.30
2024-02-08T05:14:01.627Z,0.35
2024-02-08T05:16:32.495Z,0.40
2024-02-08T05:19:00.058Z,0.50
2024-02-08T05:21:32.403Z,0.43
2024-02-08T05:24:00.075Z,0.20
2024-02-08T05:26:27.693Z,0.40
2024-02-08T05:28:54.863Z,0.40
2024-02-08T05:31:22.093Z,0.30
2024-02-08T05:33:53.359Z,0.50
2024-02-08T05:36:20.724Z,0.40
2024-02-08T05:38:48.760Z,0.40
2024-02-08T05:41:17.192Z,0.40
2024-02-08T05:43:48.409Z,0.35
2024-02-08T05:46:26.912Z,0.50
2024-02-08T05:49:05.794Z,0.40
2024-02-08T05:51:34.115Z,0.40
2024-02-08T05:54:03.285Z,0.40
2024-02-08T05:56:40.917Z,0.50
2024-02-08T05:59:09.715Z,0.50
2024-02-08T06:01:48.633Z,0.50
2024-02-08T06:04:23.855Z,0.30
2024-02-08T06:07:08.299Z,0.50
2024-02-08T06:09:47.623Z,0.60
2024-02-08T06:12:37.771Z,0.85
2024-02-08T06:15:22.281Z,0.80
2024-02-08T06:17:59.221Z,0.70
2024-02-08T06:20:44.876Z,0.60
2024-02-08T06:23:20.603Z,0.60
2024-02-08T06:26:11.152Z,0.60
2024-02-08T06:28:54.124Z,0.65
2024-02-08T06:31:33.833Z,0.50
2024-02-08T06:34:22.143Z,0.47
2024-02-08T06:37:17.766Z,0.50
2024-02-08T06:39:48.952Z,0.60
2024-02-08T06:42:37.751Z,0.50
2024-02-08T06:45:24.606Z,0.98
2024-02-08T06:48:01.924Z,0.93
2024-02-08T06:50:47.966Z,0.60
2024-02-08T06:53:37.427Z,0.70
2024-02-08T06:56:25.421Z,1.20
2024-02-08T06:59:11.372Z,1.50
2024-02-08T07:01:57.336Z,1.05
2024-02-08T07:04:43.156Z,1.02
2024-02-08T07:07:29.093Z,1.35
2024-02-08T07:10:14.801Z,1.50
2024-02-08T07:13:00.882Z,1.10
2024-02-08T07:15:46.814Z,1.10
2024-02-08T07:18:32.747Z,1.00
2024-02-08T07:21:18.843Z,1.05
2024-02-08T07:24:04.511Z,1.08
2024-02-08T07:26:50.624Z,1.60
2024-02-08T07:29:36.302Z,1.30
2024-02-08T07:32:22.126Z,0.95
2024-02-08T07:35:08.117Z,1.10
2024-02-08T07:37:37.887Z,0.82
2024-02-08T07:40:26.762Z,0.80
2024-02-08T07:43:17.654Z,0.75
2024-02-08T07:45:57.050Z,0.85
2024-02-08T07:48:40.558Z,1.48
2024-02-08T07:51:08.639Z,1.02
2024-02-08T07:53:47.199Z,1.20
2024-02-08T07:56:24.006Z,0.88
2024-02-08T07:59:05.718Z,1.20
2024-02-08T08:01:40.559Z,1.23
2024-02-08T08:04:13.987Z,1.00
2024-02-08T08:06:50.841Z,1.27
2024-02-08T08:09:22.810Z,1.27
2024-02-08T08:11:56.677Z,1.70
2024-02-08T08:14:42.037Z,1.30
2024-02-08T08:17:09.756Z,1.60
2024-02-08T08:19:40.673Z,1.10
2024-02-08T08:22:27.572Z,0.77
2024-02-08T08:25:13.239Z,1.10
2024-02-08T08:27:49.074Z,1.00
2024-02-08T08:30:31.793Z,0.73
2024-02-08T08:33:01.628Z,0.90
2024-02-08T08:35:35.786Z,0.68
2024-02-08T08:38:19.842Z,0.98
2024-02-08T08:40:51.652Z,0.98
2024-02-08T08:43:24.121Z,0.52
2024-02-08T08:46:00.797Z,0.52
2024-02-08T08:48:33.784Z,0.60
2024-02-08T08:51:12.869Z,0.55
2024-02-08T08:53:45.636Z,0.55
2024-02-08T08:56:13.489Z,0.40
2024-02-08T08:58:42.484Z,0.52
2024-02-08T09:01:20.458Z,0.70
2024-02-08T09:04:11.815Z,0.40
2024-02-08T09:06:43.132Z,0.40
2024-02-08T09:09:43.103Z,0.40
2024-02-08T09:12:10.464Z,0.38
2024-02-08T09:14:49.469Z,0.68
2024-02-08T09:17:26.276Z,0.50
2024-02-08T09:19:53.935Z,0.40
2024-02-08T09:22:21.217Z,0.90
2024-02-08T09:24:50.217Z,0.80
2024-02-08T09:27:18.118Z,0.95
2024-02-08T09:29:51.884Z,5.78
2024-02-08T09:32:37.976Z,5.18
2024-02-08T09:35:13.355Z,0.80
2024-02-08T09:37:49.820Z,0.68
2024-02-08T09:40:41.994Z,0.50
2024-02-08T09:43:19.343Z,2.13
2024-02-08T09:46:07.763Z,2.75
2024-02-08T09:48:47.283Z,0.50
2024-02-08T09:51:25.452Z,0.70
2024-02-08T09:53:53.679Z,0.47
2024-02-08T09:56:30.009Z,0.40
2024-02-08T09:59:11.123Z,0.60
2024-02-08T10:01:46.745Z,4.13
2024-02-08T10:04:20.702Z,4.43
2024-02-08T10:06:57.702Z,2.90
2024-02-08T10:09:42.626Z,0.85
2024-02-08T10:12:19.759Z,1.27
2024-02-08T10:14:52.072Z,2.17
2024-02-08T10:17:25.912Z,1.80
2024-02-08T10:20:21.586Z,0.68
2024-02-08T10:23:10.667Z,2.90
2024-02-08T10:26:10.240Z,1.15
2024-02-08T10:28:39.123Z,4.05
2024-02-08T10:31:08.477Z,0.88
2024-02-08T10:33:39.950Z,0.70
2024-02-08T10:36:10.408Z,2.50
2024-02-08T10:39:01.126Z,4.20
2024-02-08T10:41:49.372Z,2.78
2024-02-08T10:44:19.993Z,4.85
2024-02-08T10:46:48.011Z,2.75
2024-02-08T10:49:16.072Z,3.22
2024-02-08T10:51:46.668Z,1.55
2024-02-08T10:54:17.574Z,1.40
2024-02-08T10:57:07.246Z,0.60
2024-02-08T10:59:48.962Z,1.02
2024-02-08T11:02:35.122Z,1.90
2024-02-08T11:05:22.815Z,5.60
2024-02-08T11:07:54.466Z,0.90
2024-02-08T11:10:25.463Z,0.40
2024-02-08T11:13:04.078Z,3.03
2024-02-08T11:15:33.269Z,2.10
2024-02-08T11:18:06.245Z,1.13
2024-02-08T11:20:44.828Z,0.60
2024-02-08T11:23:25.285Z,1.17
2024-02-08T11:25:54.218Z,0.50
2024-02-08T11:28:29.737Z,3.10
2024-02-08T11:30:57.072Z,1.30
2024-02-08T11:33:41.472Z,1.05
2024-02-08T11:36:23.281Z,0.75
2024-02-08T11:38:59.304Z,0.60
2024-02-08T11:41:33.155Z,0.82
2024-02-08T11:44:12.967Z,1.00
2024-02-08T11:46:47.790Z,1.20
2024-02-08T11:49:32.668Z,0.50
2024-02-08T11:52:08.848Z,0.60
2024-02-08T11:54:40.225Z,0.90
2024-02-08T11:57:14.932Z,0.50
2024-02-08T11:59:46.789Z,0.63
2024-02-08T12:02:18.022Z,0.50
2024-02-08T12:04:51.032Z,0.50
2024-02-08T12:10:01.512Z,0.50
2024-02-08T12:12:34.894Z,0.77
2024-02-08T12:15:02.884Z,0.90
2024-02-08T12:17:30.175Z,0.70
2024-02-08T12:20:01.624Z,0.75
2024-02-08T12:22:31.364Z,0.90
2024-02-08T12:25:01.925Z,0.60
2024-02-08T12:27:30.132Z,0.70
2024-02-08T12:29:58.640Z,0.75
2024-02-08T12:32:31.919Z,0.95
2024-02-08T12:35:14.078Z,1.00
2024-02-08T12:37:43.477Z,0.93
2024-02-08T12:40:15.416Z,0.70
2024-02-08T12:42:43.577Z,1.05
2024-02-08T12:45:13.832Z,1.10
2024-02-08T12:47:41.274Z,1.08
2024-02-08T12:50:19.234Z,1.40
2024-02-08T12:52:57.041Z,0.80
2024-02-08T12:55:25.286Z,1.30
2024-02-08T12:58:02.847Z,1.20
2024-02-08T13:00:40.090Z,1.20
2024-02-08T13:03:08.249Z,1.52
2024-02-08T13:05:40.543Z,1.45
2024-02-08T13:08:09.803Z,1.30
2024-02-08T13:10:39.988Z,1.75
2024-02-08T13:13:12.905Z,1.33
2024-02-08T13:15:43.735Z,1.70
2024-02-08T13:18:13.114Z,1.75
2024-02-08T13:20:44.192Z,1.92
2024-02-08T13:23:12.560Z,1.83
2024-02-08T13:25:41.136Z,1.98
2024-02-08T13:28:11.368Z,1.60
2024-02-08T13:30:41.444Z,2.10
2024-02-08T13:33:12.478Z,2.28
2024-02-08T13:35:42.202Z,3.83
2024-02-08T13:38:13.682Z,10.82
2024-02-08T13:40:46.387Z,2.90
2024-02-08T13:43:15.761Z,2.70
2024-02-08T13:45:43.151Z,2.60
2024-02-08T13:48:14.503Z,2.63
2024-02-08T13:50:48.020Z,2.70
2024-02-08T13:53:16.143Z,3.25
2024-02-08T13:55:55.412Z,2.38
2024-02-08T13:58:27.812Z,2.70
2024-02-08T14:00:56.365Z,2.97
2024-02-08T14:03:25.834Z,3.20
2024-02-08T14:05:56.433Z,2.60
2024-02-08T14:08:29.608Z,2.53
2024-02-08T14:11:01.406Z,2.80
2024-02-08T14:13:36.615Z,3.10
2024-02-08T14:16:14.689Z,3.17
2024-02-08T14:18:50.081Z,2.60
2024-02-08T14:21:21.893Z,2.50
2024-02-08T14:23:50.865Z,2.78
2024-02-08T14:26:18.371Z,2.50
2024-02-08T14:28:49.160Z,3.00
2024-02-08T14:31:17.901Z,2.92
2024-02-08T14:33:47.429Z,3.20
2024-02-08T14:36:15.897Z,2.90
2024-02-08T14:38:46.830Z,3.03
2024-02-08T14:41:27.854Z,2.50
2024-02-08T14:44:07.671Z,2.70
2024-02-08T14:46:43.354Z,3.05
2024-02-08T14:49:28.310Z,2.83
2024-02-08T14:52:16.119Z,3.53
2024-02-08T14:54:43.936Z,3.88
2024-02-08T14:57:12.064Z,2.67
2024-02-08T14:59:51.034Z,3.25
2024-02-08T15:02:21.924Z,3.03
2024-02-08T15:04:54.164Z,2.53
2024-02-08T15:07:41.518Z,3.15
2024-02-08T15:10:15.020Z,3.38
2024-02-08T15:12:49.794Z,3.22
2024-02-08T15:15:20.425Z,3.33
2024-02-08T15:17:50.111Z,3.05
2024-02-08T15:20:36.053Z,3.40
2024-02-08T15:23:26.392Z,3.40
2024-02-08T15:25:55.189Z,3.72
2024-02-08T15:28:33.366Z,3.08
2024-02-08T15:31:38.044Z,3.75
2024-02-08T15:34:17.969Z,3.83
2024-02-08T15:36:52.049Z,3.53
2024-02-08T15:39:48.674Z,4.80
2024-02-08T15:42:19.959Z,3.65
2024-02-08T15:44:54.652Z,4.10
2024-02-08T15:47:22.379Z,3.50
2024-02-08T15:49:56.590Z,3.35
2024-02-08T15:52:30.608Z,3.55
2024-02-08T15:55:00.378Z,3.55
2024-02-08T15:57:34.316Z,3.50
2024-02-08T16:00:02.635Z,3.70
2024-02-08T16:02:36.989Z,2.90
2024-02-08T16:05:14.879Z,3.20
2024-02-08T16:07:45.186Z,3.80
2024-02-08T16:10:21.563Z,4.32
2024-02-08T16:13:07.489Z,4.10
2024-02-08T16:15:57.592Z,4.28
2024-02-08T16:18:30.633Z,3.55
2024-02-08T16:21:00.288Z,4.05
2024-02-08T16:23:28.821Z,3.88
2024-02-08T16:26:06.281Z,3.50
2024-02-08T16:28:46.784Z,3.63
2024-02-08T16:31:17.028Z,3.50
2024-02-08T16:33:49.530Z,4.10
2024-02-08T16:36:28.229Z,3.72
2024-02-08T16:39:15.717Z,3.28
2024-02-08T16:41:50.197Z,4.05
2024-02-08T16:44:31.175Z,3.63
2024-02-08T16:47:01.212Z,3.97
2024-02-08T16:49:31.043Z,4.45
2024-02-08T16:52:05.703Z,3.67
2024-02-08T16:54:36.792Z,4.20
2024-02-08T16:57:07.802Z,4.32
2024-02-08T16:59:50.444Z,4.03
2024-02-08T17:02:26.363Z,4.38
2024-02-08T17:05:10.446Z,3.92
2024-02-08T17:07:48.357Z,3.95
2024-02-08T17:10:38.235Z,3.67
2024-02-08T17:13:12.365Z,3.67
2024-02-08T17:16:18.923Z,3.80
2024-02-08T17:18:58.391Z,4.10
2024-02-08T17:21:44.459Z,4.60
2024-02-08T17:24:23.247Z,4.80
2024-02-08T17:27:00.781Z,4.22
2024-02-08T17:29:37.082Z,3.58
2024-02-08T17:32:08.832Z,4.80
2024-02-08T17:34:38.740Z,4.72
2024-02-08T17:37:07.291Z,4.68
2024-02-08T17:39:56.375Z,4.72
2024-02-08T17:42:23.556Z,3.70
2024-02-08T17:44:55.846Z,4.95
2024-02-08T17:47:29.626Z,5.40
2024-02-08T17:50:04.779Z,4.57
2024-02-08T17:52:39.145Z,4.40
2024-02-08T17:55:09.928Z,5.03
2024-02-08T17:57:43.103Z,4.82
2024-02-08T18:00:13.691Z,4.60
2024-02-08T18:02:44.585Z,4.53
2024-02-08T18:05:15.873Z,4.30
2024-02-08T18:07:46.054Z,4.30
2024-02-08T18:10:21.504Z,4.18
2024-02-08T18:12:55.924Z,5.00
2024-02-08T18:15:27.368Z,4.80
2024-02-08T18:17:56.958Z,4.30
2024-02-08T18:20:26.500Z,4.93
2024-02-08T18:22:54.159Z,4.97
2024-02-08T18:25:30.837Z,5.28
2024-02-08T18:28:00.488Z,4.75
2024-02-08T18:30:30.434Z,4.82
2024-02-08T18:33:07.912Z,4.38
2024-02-08T18:35:36.006Z,5.03
2024-02-08T18:38:09.586Z,4.60
2024-02-08T18:40:39.027Z,5.28
2024-02-08T18:43:07.332Z,5.00
2024-02-08T18:45:42.034Z,5.20
2024-02-08T18:48:15.940Z,4.70
2024-02-08T18:50:44.713Z,5.80
2024-02-08T18:53:13.847Z,5.55
2024-02-08T18:55:52.103Z,5.10
2024-02-08T18:58:20.819Z,5.65
2024-02-08T19:00:54.699Z,6.25
2024-02-08T19:03:23.495Z,7.07
2024-02-08T19:05:51.326Z,6.80
2024-02-08T19:08:20.137Z,5.47
2024-02-08T19:10:53.746Z,6.25
2024-02-08T19:13:29.476Z,5.97
2024-02-08T19:16:13.202Z,5.03
2024-02-08T19:18:53.399Z,5.82
2024-02-08T19:21:27.187Z,6.60
2024-02-08T19:23:56.952Z,5.57
2024-02-08T19:26:26.636Z,6.38
2024-02-08T19:28:56.100Z,6.03
2024-02-08T19:31:29.610Z,5.72
2024-02-08T19:34:05.188Z,5.65
2024-02-08T19:36:33.529Z,6.13
2024-02-08T19:39:19.828Z,5.15
2024-02-08T19:41:50.723Z,6.03
2024-02-08T19:44:27.943Z,5.63
2024-02-08T19:47:04.320Z,5.63
2024-02-08T19:49:40.262Z,6.63
2024-02-08T19:52:15.886Z,5.75
2024-02-08T19:54:43.982Z,5.70
2024-02-08T19:57:19.064Z,6.22
2024-02-08T19:59:50.160Z,6.65
2024-02-08T20:02:31.761Z,5.93
2024-02-08T20:05:00.688Z,6.30
2024-02-08T20:07:31.440Z,6.57
2024-02-08T20:10:02.807Z,6.13
2024-02-08T20:12:34.082Z,6.47
2024-02-08T20:15:13.777Z,6.95
2024-02-08T20:17:41.140Z,5.63
2024-02-08T20:20:26.895Z,5.95
2024-02-08T20:23:16.141Z,6.03
2024-02-08T20:25:44.999Z,5.47
2024-02-08T20:28:14.175Z,5.70
2024-02-08T20:30:57.635Z,6.32
2024-02-08T20:33:32.390Z,6.22
2024-02-08T20:36:02.012Z,6.28
2024-02-08T20:38:32.150Z,7.32
2024-02-08T20:40:59.418Z,6.55
2024-02-08T20:43:27.306Z,6.22
2024-02-08T20:45:56.135Z,6.25
2024-02-08T20:48:23.802Z,7.88
2024-02-08T20:50:52.123Z,6.93
2024-02-08T20:53:19.694Z,6.97
2024-02-08T20:55:49.191Z,7.28
2024-02-08T20:58:18.433Z,7.88
2024-02-08T21:00:48.015Z,7.47
2024-02-08T21:03:17.112Z,7.50
2024-02-08T21:05:50.206Z,7.53
2024-02-08T21:08:18.073Z,7.20
2024-02-08T21:10:48.827Z,7.88
2024-02-08T21:13:20.578Z,7.80
2024-02-08T21:15:49.900Z,8.30
2024-02-08T21:18:21.423Z,7.80
2024-02-08T21:20:54.289Z,8.40
2024-02-08T21:23:23.312Z,7.78
2024-02-08T21:25:54.501Z,8.10
2024-02-08T21:28:23.737Z,8.23
2024-02-08T21:30:51.106Z,8.10
2024-02-08T21:33:18.590Z,7.75
2024-02-08T21:35:47.005Z,7.65
2024-02-08T21:38:15.092Z,8.00
2024-02-08T21:40:43.652Z,7.35
2024-02-08T21:43:11.840Z,8.25
2024-02-08T21:45:48.065Z,7.28
2024-02-08T21:48:16.529Z,7.00
2024-02-08T21:50:50.067Z,7.65
2024-02-08T21:53:18.915Z,7.25
2024-02-08T21:55:46.343Z,7.68
2024-02-08T21:58:14.085Z,7.22
2024-02-08T22:00:43.779Z,7.25
2024-02-08T22:03:10.960Z,7.28
2024-02-08T22:05:38.548Z,7.28
2024-02-08T22:08:06.592Z,7.30
2024-02-08T22:10:35.723Z,7.38
2024-02-08T22:13:07.329Z,6.75
2024-02-08T22:15:34.882Z,6.80
2024-02-08T22:18:05.558Z,7.55
2024-02-08T22:20:34.499Z,7.82
2024-02-08T22:23:01.850Z,7.68
2024-02-08T22:25:29.035Z,7.68
2024-02-08T22:27:58.263Z,7.55
2024-02-08T22:30:25.561Z,7.10
2024-02-08T22:32:53.704Z,7.38
2024-02-08T22:35:21.072Z,7.72
2024-02-08T22:37:49.899Z,7.45
2024-02-08T22:40:19.685Z,7.60
2024-02-08T22:42:47.248Z,7.13
2024-02-08T22:45:15.051Z,7.57
2024-02-08T22:47:48.608Z,8.80
2024-02-08T22:50:17.267Z,8.25
2024-02-08T22:52:53.803Z,7.55
2024-02-08T22:55:23.138Z,8.57
2024-02-08T22:57:54.485Z,8.23
2024-02-08T23:00:28.299Z,9.25
2024-02-08T23:03:14.444Z,8.98
2024-02-08T23:05:43.053Z,9.13
2024-02-08T23:08:11.757Z,7.75
2024-02-08T23:10:40.169Z,8.70
2024-02-08T23:13:12.291Z,8.20
2024-02-08T23:15:48.300Z,8.88
2024-02-08T23:18:20.234Z,8.95
2024-02-08T23:20:48.366Z,9.70
2024-02-08T23:23:15.619Z,8.57
2024-02-08T23:25:43.013Z,8.32
2024-02-08T23:28:10.717Z,9.00
2024-02-08T23:30:45.366Z,9.02
2024-02-08T23:33:18.028Z,8.27
2024-02-08T23:35:46.560Z,8.02
2024-02-08T23:38:19.983Z,8.77
2024-02-08T23:40:48.810Z,8.32
2024-02-08T23:43:16.441Z,7.55
2024-02-08T23:45:44.256Z,7.85
2024-02-08T23:48:11.515Z,8.45
2024-02-08T23:50:38.944Z,8.00
2024-02-08T23:53:06.191Z,8.25
2024-02-08T23:55:36.365Z,8.48
2024-02-08T23:58:11.821Z,7.47
